createdAt,value
2023-05-24T00:03:31.149Z,7.30
2023-05-24T00:08:37.253Z,7.70
2023-05-24T00:13:42.929Z,7.50
2023-05-24T00:18:52.357Z,7.50
2023-05-24T00:23:55.857Z,7.90
2023-05-24T00:29:00.054Z,7.60
2023-05-24T00:34:03.643Z,7.50
2023-05-24T00:39:07.494Z,7.30
2023-05-24T00:44:12.244Z,7.70
2023-05-24T00:49:15.831Z,7.40
2023-05-24T00:54:19.279Z,7.40
2023-05-24T00:59:24.182Z,7.60
2023-05-24T01:04:28.452Z,7.30
2023-05-24T01:10:03.543Z,7.40
2023-05-24T01:16:02.556Z,7.40
2023-05-24T01:21:38.941Z,7.20
2023-05-24T01:27:02.368Z,7.10
2023-05-24T01:32:07.147Z,7.40
2023-05-24T01:37:12.687Z,7.00
2023-05-24T01:42:18.675Z,7.40
2023-05-24T01:47:27.839Z,7.10
2023-05-24T01:52:34.933Z,7.60
2023-05-24T01:57:41.540Z,7.10
2023-05-24T02:02:46.033Z,7.30
2023-05-24T02:07:50.210Z,6.90
2023-05-24T02:12:53.432Z,6.80
2023-05-24T02:17:57.230Z,6.90
2023-05-24T02:23:00.766Z,7.10
2023-05-24T02:28:04.267Z,7.20
2023-05-24T02:33:07.665Z,7.70
2023-05-24T02:38:11.040Z,7.00
2023-05-24T02:43:14.763Z,7.20
2023-05-24T02:48:18.285Z,6.80
2023-05-24T02:53:21.756Z,7.00
2023-05-24T02:58:25.656Z,6.80
2023-05-24T03:03:31.401Z,6.70
2023-05-24T03:08:37.583Z,6.40
2023-05-24T03:13:44.737Z,6.30
2023-05-24T03:18:57.538Z,6.80
2023-05-24T03:24:01.393Z,6.40
2023-05-24T03:29:04.920Z,6.80
2023-05-24T03:34:12.526Z,6.70
2023-05-24T03:39:19.053Z,6.00
2023-05-24T03:44:32.292Z,6.70
2023-05-24T03:49:35.941Z,6.40
2023-05-24T03:54:39.476Z,6.80
2023-05-24T03:59:42.712Z,6.60
2023-05-24T04:04:46.430Z,6.50
2023-05-24T04:09:50.118Z,6.90
2023-05-24T04:14:53.709Z,6.40
2023-05-24T04:19:57.091Z,6.30
2023-05-24T04:25:00.544Z,6.60
2023-05-24T04:30:04.216Z,7.00
2023-05-24T04:35:08.351Z,7.10
2023-05-24T04:40:12.503Z,6.70
2023-05-24T04:45:16.783Z,6.70
2023-05-24T04:50:20.040Z,6.10
2023-05-24T04:55:23.243Z,6.60
2023-05-24T05:00:26.519Z,6.80
2023-05-24T05:05:29.820Z,6.50
2023-05-24T05:10:33.054Z,6.60
2023-05-24T05:15:36.306Z,6.60
2023-05-24T05:20:39.926Z,7.30
2023-05-24T05:25:43.564Z,6.60
2023-05-24T05:30:46.746Z,6.30
2023-05-24T05:35:51.788Z,6.30
2023-05-24T05:40:56.713Z,6.70
2023-05-24T05:46:01.147Z,6.20
2023-05-24T05:51:04.513Z,6.50
2023-05-24T05:56:08.030Z,6.20
2023-05-24T06:01:11.363Z,6.50
2023-05-24T06:06:14.671Z,6.60
2023-05-24T06:11:18.054Z,6.30
2023-05-24T06:16:21.942Z,6.10
2023-05-24T06:21:25.191Z,6.00
2023-05-24T06:26:28.528Z,6.40
2023-05-24T06:31:31.827Z,6.90
2023-05-24T06:36:43.241Z,6.80
2023-05-24T06:41:47.443Z,6.30
2023-05-24T06:46:51.024Z,7.00
2023-05-24T06:51:54.228Z,6.60
2023-05-24T06:56:57.934Z,6.60
2023-05-24T07:02:03.904Z,6.70
2023-05-24T07:07:09.322Z,6.30
2023-05-24T07:12:13.097Z,6.80
2023-05-24T07:17:16.683Z,6.50
2023-05-24T07:22:20.391Z,6.60
2023-05-24T07:27:23.840Z,6.60
2023-05-24T07:32:27.673Z,6.40
2023-05-24T07:37:31.333Z,6.00
2023-05-24T07:42:34.627Z,6.20
2023-05-24T07:47:38.991Z,5.70
2023-05-24T07:52:42.217Z,6.40
2023-05-24T07:57:45.462Z,6.40
2023-05-24T08:02:49.326Z,6.40
2023-05-24T08:07:56.192Z,6.30
2023-05-24T08:12:59.480Z,6.10
2023-05-24T08:18:03.639Z,6.20
2023-05-24T08:23:06.997Z,6.40
2023-05-24T08:28:11.255Z,6.40
2023-05-24T08:33:15.110Z,6.40
2023-05-24T08:38:18.901Z,6.50
2023-05-24T08:43:23.770Z,6.60
2023-05-24T08:48:28.683Z,6.20
2023-05-24T08:53:33.791Z,6.90
2023-05-24T08:58:39.939Z,6.70
2023-05-24T09:03:46.438Z,7.10
2023-05-24T09:08:52.720Z,7.10
2023-05-24T09:13:57.415Z,7.20
2023-05-24T09:19:01.472Z,7.40
2023-05-24T09:24:08.590Z,7.50
2023-05-24T09:29:11.937Z,7.40
2023-05-24T09:34:16.921Z,7.40
2023-05-24T09:39:23.378Z,9.50
2023-05-24T09:44:28.364Z,7.80
2023-05-24T09:49:32.940Z,9.20
2023-05-24T09:54:36.248Z,8.40
2023-05-24T09:59:41.001Z,7.50
2023-05-24T10:04:44.555Z,7.50
2023-05-24T10:09:48.841Z,7.70
2023-05-24T10:14:52.540Z,7.40
2023-05-24T10:19:55.923Z,7.30
2023-05-24T10:25:00.165Z,7.30
2023-05-24T10:30:23.621Z,7.30
2023-05-24T10:35:27.788Z,7.60
2023-05-24T10:40:32.162Z,7.50
2023-05-24T10:45:40.953Z,7.90
2023-05-24T10:50:44.945Z,7.50
2023-05-24T10:55:53.469Z,8.20
2023-05-24T11:00:56.748Z,7.10
2023-05-24T11:06:00.324Z,7.20
2023-05-24T11:11:22.394Z,6.60
2023-05-24T11:16:40.391Z,6.80
2023-05-24T11:21:46.368Z,7.00
2023-05-24T11:26:50.481Z,7.10
2023-05-24T11:32:04.245Z,7.20
2023-05-24T11:37:07.800Z,7.00
2023-05-24T11:42:11.282Z,6.70
2023-05-24T11:47:14.513Z,6.70
2023-05-24T11:52:18.265Z,7.20
2023-05-24T11:57:30.764Z,6.70
2023-05-24T12:02:34.382Z,6.90
2023-05-24T12:07:38.063Z,6.90
2023-05-24T12:12:46.287Z,6.80
2023-05-24T12:17:53.649Z,6.70
2023-05-24T12:22:57.382Z,6.80
2023-05-24T12:28:00.726Z,6.50
2023-05-24T12:33:04.263Z,6.60
2023-05-24T12:38:09.456Z,6.10
2023-05-24T12:43:14.999Z,8.40
2023-05-24T12:48:18.551Z,8.40
2023-05-24T12:53:24.800Z,8.80
2023-05-24T12:58:28.071Z,8.30
2023-05-24T13:03:31.256Z,10.60
2023-05-24T13:08:34.493Z,10.40
2023-05-24T13:13:38.477Z,9.70
2023-05-24T13:18:41.837Z,9.30
2023-05-24T13:23:45.564Z,11.20
2023-05-24T13:29:15.075Z,12.00
2023-05-24T13:34:12.318Z,11.40
2023-05-24T13:39:16.737Z,11.70
2023-05-24T13:44:20.530Z,11.10
2023-05-24T13:49:23.928Z,11.90
2023-05-24T13:54:28.010Z,12.70
2023-05-24T13:59:31.503Z,12.10
2023-05-24T14:04:34.900Z,11.50
2023-05-24T14:09:38.237Z,11.10
2023-05-24T14:19:47.950Z,11.10
2023-05-24T14:24:51.319Z,10.70
2023-05-24T14:29:54.464Z,10.60
2023-05-24T14:34:57.671Z,10.40
2023-05-24T14:40:01.381Z,9.80
2023-05-24T14:45:05.171Z,10.80
2023-05-24T14:50:08.830Z,12.80
2023-05-24T14:55:13.028Z,13.70
2023-05-24T15:00:18.498Z,12.90
2023-05-24T15:05:23.742Z,16.60
2023-05-24T15:10:27.253Z,15.20
2023-05-24T15:15:30.855Z,15.60
2023-05-24T15:20:35.668Z,13.00
2023-05-24T15:25:39.433Z,9.80
2023-05-24T15:30:47.318Z,8.70
2023-05-24T15:35:51.397Z,14.70
2023-05-24T15:40:54.743Z,13.90
2023-05-24T15:45:57.939Z,13.70
2023-05-24T15:51:42.810Z,13.90
2023-05-24T15:56:25.034Z,14.10
2023-05-24T16:01:28.477Z,14.70
2023-05-24T16:06:32.168Z,15.30
2023-05-24T16:11:35.902Z,14.20
2023-05-24T16:16:39.434Z,13.80
2023-05-24T16:21:42.883Z,13.80
2023-05-24T16:26:46.551Z,12.00
2023-05-24T16:31:49.897Z,11.80
2023-05-24T16:36:53.375Z,11.90
2023-05-24T16:41:57.229Z,12.10
2023-05-24T16:47:02.583Z,12.50
2023-05-24T16:52:06.079Z,12.80
2023-05-24T16:57:09.586Z,12.80
2023-05-24T17:02:13.125Z,12.80
2023-05-24T17:07:16.600Z,12.20
2023-05-24T17:12:22.032Z,11.10
2023-05-24T17:17:26.469Z,11.80
2023-05-24T17:22:30.037Z,12.70
2023-05-24T17:27:34.158Z,12.00
2023-05-24T17:32:37.782Z,12.30
2023-05-24T17:37:41.912Z,12.30
2023-05-24T17:42:45.331Z,12.00
2023-05-24T17:47:49.915Z,11.20
2023-05-24T17:52:53.640Z,11.80
2023-05-24T17:57:58.052Z,11.90
2023-05-24T18:03:02.404Z,12.30
2023-05-24T18:08:05.795Z,12.50
2023-05-24T18:13:09.719Z,12.90
2023-05-24T18:18:13.719Z,11.80
2023-05-24T18:23:18.045Z,12.40
2023-05-24T18:28:21.633Z,12.90
2023-05-24T18:33:25.354Z,13.40
2023-05-24T18:38:29.668Z,13.50
2023-05-24T18:43:33.382Z,12.20
2023-05-24T18:48:36.875Z,12.20
2023-05-24T18:53:55.229Z,12.60
2023-05-24T18:59:01.471Z,13.80
2023-05-24T19:04:06.187Z,12.80
2023-05-24T19:09:10.969Z,12.10
2023-05-24T19:14:14.347Z,12.00
2023-05-24T19:19:17.960Z,13.10
2023-05-24T19:24:24.408Z,13.30
2023-05-24T19:29:28.656Z,13.40
2023-05-24T19:34:35.426Z,12.40
2023-05-24T19:39:39.125Z,11.80
2023-05-24T19:44:42.441Z,13.20
2023-05-24T19:49:45.632Z,14.10
2023-05-24T19:54:50.428Z,14.70
2023-05-24T19:59:55.150Z,15.10
2023-05-24T20:04:58.962Z,13.80
2023-05-24T20:10:05.293Z,13.40
2023-05-24T20:15:10.121Z,14.20
2023-05-24T20:20:14.501Z,15.50
2023-05-24T20:25:20.499Z,15.90
2023-05-24T20:30:25.092Z,15.30
2023-05-24T20:35:28.761Z,16.10
2023-05-24T20:40:33.025Z,16.40
2023-05-24T20:45:36.585Z,17.40
2023-05-24T20:50:39.903Z,17.10
2023-05-24T20:55:43.532Z,16.00
2023-05-24T21:00:47.817Z,15.20
2023-05-24T21:05:51.860Z,15.60
2023-05-24T21:10:55.873Z,16.30
2023-05-24T21:15:59.170Z,16.80
2023-05-24T21:21:02.480Z,16.20
2023-05-24T21:26:05.907Z,16.10
2023-05-24T21:31:09.268Z,15.70
2023-05-24T21:36:13.044Z,16.90
2023-05-24T21:41:16.323Z,17.60
2023-05-24T21:46:19.613Z,17.20
2023-05-24T21:51:25.747Z,16.50
2023-05-24T21:56:28.941Z,16.90
2023-05-24T22:01:32.263Z,18.00
2023-05-24T22:06:36.557Z,18.70
2023-05-24T22:11:41.416Z,17.10
2023-05-24T22:16:45.246Z,16.70
2023-05-24T22:21:50.426Z,17.30
2023-05-24T22:27:20.535Z,18.00
2023-05-24T22:32:22.670Z,19.60
2023-05-24T22:42:26.421Z,18.60
2023-05-24T22:47:32.633Z,19.50
2023-05-24T22:52:34.735Z,19.80
2023-05-24T22:57:36.446Z,20.30
2023-05-24T23:02:38.412Z,19.50
2023-05-24T23:07:40.433Z,19.10
2023-05-24T23:12:42.318Z,18.90
2023-05-24T23:17:44.321Z,19.10
2023-05-24T23:22:46.277Z,19.60
2023-05-24T23:27:48.080Z,19.40
2023-05-24T23:32:49.967Z,19.40
2023-05-24T23:37:53.208Z,19.70
2023-05-24T23:42:55.478Z,20.30
2023-05-24T23:52:59.362Z,21.10
2023-05-24T23:58:01.193Z,19.60
